sensor_id;sensor_type;location;lat;lon;timestamp;pressure;altitude;pressure_sealevel;temperature;humidity
69411;BME280;56604;48.652;9.194;2022-10-26T00:02:13;96342.59;;;12.73;77.70
69411;BME280;56604;48.652;9.194;2022-10-26T00:04:38;96344.19;;;12.79;77.43
69411;BME280;56604;48.652;9.194;2022-10-26T00:07:03;96337.84;;;12.80;77.61
69411;BME280;56604;48.652;9.194;2022-10-26T00:09:28;96343.91;;;12.80;76.83
69411;BME280;56604;48.652;9.194;2022-10-26T00:11:54;96345.75;;;12.80;76.79
69411;BME280;56604;48.652;9.194;2022-10-26T00:14:19;96347.88;;;12.83;77.01
69411;BME280;56604;48.652;9.194;2022-10-26T00:16:44;96345.25;;;12.83;76.85
69411;BME280;56604;48.652;9.194;2022-10-26T00:19:10;96350.50;;;12.83;77.28
69411;BME280;56604;48.652;9.194;2022-10-26T00:21:35;96339.44;;;12.86;76.91
69411;BME280;56604;48.652;9.194;2022-10-26T00:24:00;96341.56;;;12.89;77.14
69411;BME280;56604;48.652;9.194;2022-10-26T00:26:26;96337.34;;;12.93;76.36
69411;BME280;56604;48.652;9.194;2022-10-26T00:28:52;96334.44;;;12.95;75.94
69411;BME280;56604;48.652;9.194;2022-10-26T00:31:18;96337.63;;;13.02;76.45
69411;BME280;56604;48.652;9.194;2022-10-26T00:33:44;96336.31;;;12.99;75.97
69411;BME280;56604;48.652;9.194;2022-10-26T00:36:10;96333.94;;;12.98;76.22
69411;BME280;56604;48.652;9.194;2022-10-26T00:38:38;96338.41;;;13.02;76.13
69411;BME280;56604;48.652;9.194;2022-10-26T00:41:04;96345.81;;;13.05;75.60
69411;BME280;56604;48.652;9.194;2022-10-26T00:45:56;96336.84;;;13.07;75.91
69411;BME280;56604;48.652;9.194;2022-10-26T00:48:34;96343.19;;;13.11;75.58
69411;BME280;56604;48.652;9.194;2022-10-26T00:51:05;96346.38;;;13.13;75.10
69411;BME280;56604;48.652;9.194;2022-10-26T00:53:33;96346.88;;;13.15;75.59
69411;BME280;56604;48.652;9.194;2022-10-26T00:55:59;96349.81;;;13.18;75.75
69411;BME280;56604;48.652;9.194;2022-10-26T00:58:25;96341.13;;;13.28;75.37
69411;BME280;56604;48.652;9.194;2022-10-26T01:00:51;96347.47;;;13.27;75.94
69411;BME280;56604;48.652;9.194;2022-10-26T01:03:16;96349.53;;;13.25;75.24
69411;BME280;56604;48.652;9.194;2022-10-26T01:05:44;96350.06;;;13.17;76.01
69411;BME280;56604;48.652;9.194;2022-10-26T01:08:11;96343.75;;;13.18;76.78
69411;BME280;56604;48.652;9.194;2022-10-26T01:10:39;96343.19;;;13.11;77.11
69411;BME280;56604;48.652;9.194;2022-10-26T01:13:06;96327.34;;;13.11;78.03
69411;BME280;56604;48.652;9.194;2022-10-26T01:15:47;96327.34;;;13.05;78.43
69411;BME280;56604;48.652;9.194;2022-10-26T01:24:06;96314.16;;;13.05;78.05
69411;BME280;56604;48.652;9.194;2022-10-26T01:27:10;96312.56;;;12.99;78.76
69411;BME280;56604;48.652;9.194;2022-10-26T01:35:27;96289.84;;;12.93;77.74
69411;BME280;56604;48.652;9.194;2022-10-26T01:38:07;96289.34;;;13.07;77.32
69411;BME280;56604;48.652;9.194;2022-10-26T01:40:38;96285.91;;;12.91;78.80
69411;BME280;56604;48.652;9.194;2022-10-26T01:43:07;96294.06;;;12.79;80.43
69411;BME280;56604;48.652;9.194;2022-10-26T01:45:35;96295.13;;;12.88;80.33
69411;BME280;56604;48.652;9.194;2022-10-26T01:48:02;96301.44;;;12.82;80.88
69411;BME280;56604;48.652;9.194;2022-10-26T01:50:28;96303.03;;;12.88;80.17
69411;BME280;56604;48.652;9.194;2022-10-26T01:52:55;96296.19;;;12.97;79.50
69411;BME280;56604;48.652;9.194;2022-10-26T01:58:43;96312.53;;;12.84;80.25
69411;BME280;56604;48.652;9.194;2022-10-26T02:04:45;96296.41;;;12.80;80.20
69411;BME280;56604;48.652;9.194;2022-10-26T02:07:26;96299.34;;;12.79;80.52
69411;BME280;56604;48.652;9.194;2022-10-26T02:12:40;96280.63;;;12.91;80.13
69411;BME280;56604;48.652;9.194;2022-10-26T02:15:29;96270.84;;;12.81;79.94
69411;BME280;56604;48.652;9.194;2022-10-26T02:18:03;96281.91;;;12.68;81.06
69411;BME280;56604;48.652;9.194;2022-10-26T02:20:42;96295.38;;;12.76;81.26
69411;BME280;56604;48.652;9.194;2022-10-26T02:23:10;96309.84;;;12.69;81.94
69411;BME280;56604;48.652;9.194;2022-10-26T02:25:41;96319.59;;;12.63;82.17
69411;BME280;56604;48.652;9.194;2022-10-26T02:28:12;96318.28;;;12.60;82.55
69411;BME280;56604;48.652;9.194;2022-10-26T02:30:39;96321.69;;;12.56;82.93
69411;BME280;56604;48.652;9.194;2022-10-26T02:33:08;96316.66;;;12.49;83.25
69411;BME280;56604;48.652;9.194;2022-10-26T02:35:37;96326.97;;;12.51;82.78
69411;BME280;56604;48.652;9.194;2022-10-26T02:38:07;96317.22;;;12.56;83.06
69411;BME280;56604;48.652;9.194;2022-10-26T02:40:34;96321.69;;;12.56;82.65
69411;BME280;56604;48.652;9.194;2022-10-26T02:43:05;96323.56;;;12.66;82.78
69411;BME280;56604;48.652;9.194;2022-10-26T02:45:36;96322.25;;;12.58;82.51
69411;BME280;56604;48.652;9.194;2022-10-26T02:48:03;96321.97;;;12.59;82.74
69411;BME280;56604;48.652;9.194;2022-10-26T02:53:34;96321.47;;;12.68;82.29
69411;BME280;56604;48.652;9.194;2022-10-26T02:56:08;96314.88;;;12.65;82.49
69411;BME280;56604;48.652;9.194;2022-10-26T02:58:39;96318.81;;;12.63;82.58
69411;BME280;56604;48.652;9.194;2022-10-26T03:01:08;96314.06;;;12.65;82.65
69411;BME280;56604;48.652;9.194;2022-10-26T03:03:34;96318.56;;;12.64;82.34
69411;BME280;56604;48.652;9.194;2022-10-26T03:05:59;96327.81;;;12.67;82.74
69411;BME280;56604;48.652;9.194;2022-10-26T03:08:24;96328.81;;;12.60;83.24
69411;BME280;56604;48.652;9.194;2022-10-26T03:10:50;96335.66;;;12.51;83.66
69411;BME280;56604;48.652;9.194;2022-10-26T03:13:15;96338.31;;;12.56;83.72
69411;BME280;56604;48.652;9.194;2022-10-26T03:15:40;96341.50;;;12.58;83.37
69411;BME280;56604;48.652;9.194;2022-10-26T03:18:06;96340.44;;;12.65;82.59
69411;BME280;56604;48.652;9.194;2022-10-26T03:20:31;96349.44;;;12.64;82.50
69411;BME280;56604;48.652;9.194;2022-10-26T03:22:57;96347.56;;;12.59;83.09
69411;BME280;56604;48.652;9.194;2022-10-26T03:25:23;96358.63;;;12.66;82.70
69411;BME280;56604;48.652;9.194;2022-10-26T03:28:01;96361.28;;;12.66;82.95
69411;BME280;56604;48.652;9.194;2022-10-26T03:30:28;96376.91;;;12.78;82.66
69411;BME280;56604;48.652;9.194;2022-10-26T03:32:53;96389.06;;;12.84;82.71
69411;BME280;56604;48.652;9.194;2022-10-26T03:35:19;96388.53;;;12.87;83.25
69411;BME280;56604;48.652;9.194;2022-10-26T03:37:44;96393.78;;;12.82;83.81
69411;BME280;56604;48.652;9.194;2022-10-26T03:40:10;96394.06;;;12.86;83.49
69411;BME280;56604;48.652;9.194;2022-10-26T03:42:36;96388.00;;;12.85;83.68
69411;BME280;56604;48.652;9.194;2022-10-26T03:45:02;96388.81;;;12.96;83.58
69411;BME280;56604;48.652;9.194;2022-10-26T03:47:27;96386.44;;;12.94;83.54
69411;BME280;56604;48.652;9.194;2022-10-26T03:49:52;96383.28;;;12.92;83.76
69411;BME280;56604;48.652;9.194;2022-10-26T03:52:18;96380.13;;;12.95;83.53
69411;BME280;56604;48.652;9.194;2022-10-26T03:54:43;96370.09;;;12.92;83.33
69411;BME280;56604;48.652;9.194;2022-10-26T03:57:08;96369.53;;;12.90;83.81
69411;BME280;56604;48.652;9.194;2022-10-26T03:59:34;96371.63;;;12.88;83.30
69411;BME280;56604;48.652;9.194;2022-10-26T04:01:59;96372.19;;;12.95;83.48
69411;BME280;56604;48.652;9.194;2022-10-26T04:04:24;96362.69;;;12.99;83.17
69411;BME280;56604;48.652;9.194;2022-10-26T04:06:49;96354.00;;;13.04;82.54
69411;BME280;56604;48.652;9.194;2022-10-26T04:09:15;96337.38;;;12.98;82.87
69411;BME280;56604;48.652;9.194;2022-10-26T04:11:40;96314.66;;;13.02;84.21
69411;BME280;56604;48.652;9.194;2022-10-26T04:14:05;96316.25;;;12.98;85.22
69411;BME280;56604;48.652;9.194;2022-10-26T04:16:31;96352.63;;;12.86;87.53
69411;BME280;56604;48.652;9.194;2022-10-26T04:18:56;96350.53;;;12.78;88.13
69411;BME280;56604;48.652;9.194;2022-10-26T04:21:21;96350.00;;;12.81;88.51
69411;BME280;56604;48.652;9.194;2022-10-26T04:23:47;96339.72;;;12.85;88.87
69411;BME280;56604;48.652;9.194;2022-10-26T04:26:12;96334.69;;;12.78;88.76
69411;BME280;56604;48.652;9.194;2022-10-26T04:28:37;96347.84;;;12.68;91.08
69411;BME280;56604;48.652;9.194;2022-10-26T04:31:02;96358.16;;;12.79;90.31
69411;BME280;56604;48.652;9.194;2022-10-26T04:33:28;96369.50;;;12.80;90.28
69411;BME280;56604;48.652;9.194;2022-10-26T04:36:00;96360.53;;;12.86;91.06
69411;BME280;56604;48.652;9.194;2022-10-26T04:38:25;96356.09;;;12.87;90.11
69411;BME280;56604;48.652;9.194;2022-10-26T04:40:51;96353.72;;;13.00;89.38
69411;BME280;56604;48.652;9.194;2022-10-26T04:43:16;96343.69;;;12.97;89.11
69411;BME280;56604;48.652;9.194;2022-10-26T04:45:41;96342.09;;;12.91;88.83
69411;BME280;56604;48.652;9.194;2022-10-26T04:48:10;96342.09;;;12.96;89.31
69411;BME280;56604;48.652;9.194;2022-10-26T04:50:36;96346.84;;;12.84;89.58
69411;BME280;56604;48.652;9.194;2022-10-26T04:53:02;96337.88;;;12.85;89.26
69411;BME280;56604;48.652;9.194;2022-10-26T04:55:27;96330.75;;;12.86;88.57
69411;BME280;56604;48.652;9.194;2022-10-26T04:57:52;96340.00;;;12.98;87.23
69411;BME280;56604;48.652;9.194;2022-10-26T05:00:18;96350.31;;;13.10;86.83
69411;BME280;56604;48.652;9.194;2022-10-26T05:02:43;96352.47;;;13.23;85.01
69411;BME280;56604;48.652;9.194;2022-10-26T05:05:09;96351.38;;;13.19;85.68
69411;BME280;56604;48.652;9.194;2022-10-26T05:07:34;96353.25;;;13.24;84.91
69411;BME280;56604;48.652;9.194;2022-10-26T05:09:59;96355.09;;;13.28;84.57
69411;BME280;56604;48.652;9.194;2022-10-26T05:12:25;96347.47;;;13.37;83.99
69411;BME280;56604;48.652;9.194;2022-10-26T05:14:50;96354.31;;;13.48;83.15
69411;BME280;56604;48.652;9.194;2022-10-26T05:17:15;96358.03;;;13.47;83.03
69411;BME280;56604;48.652;9.194;2022-10-26T05:19:41;96363.31;;;13.47;83.73
69411;BME280;56604;48.652;9.194;2022-10-26T05:22:06;96359.06;;;13.52;83.48
69411;BME280;56604;48.652;9.194;2022-10-26T05:24:31;96364.34;;;13.52;83.70
69411;BME280;56604;48.652;9.194;2022-10-26T05:26:57;96358.03;;;13.47;83.49
69411;BME280;56604;48.652;9.194;2022-10-26T05:29:22;96361.75;;;13.46;82.94
69411;BME280;56604;48.652;9.194;2022-10-26T05:31:47;96367.28;;;13.50;83.90
69411;BME280;56604;48.652;9.194;2022-10-26T05:34:13;96375.97;;;13.45;84.10
69411;BME280;56604;48.652;9.194;2022-10-26T05:36:38;96378.38;;;13.42;84.53
69411;BME280;56604;48.652;9.194;2022-10-26T05:39:04;96375.97;;;13.45;84.57
69411;BME280;56604;48.652;9.194;2022-10-26T05:41:29;96370.94;;;13.28;84.33
69411;BME280;56604;48.652;9.194;2022-10-26T05:43:54;96369.63;;;13.31;84.02
69411;BME280;56604;48.652;9.194;2022-10-26T05:46:19;96368.31;;;13.34;84.54
69411;BME280;56604;48.652;9.194;2022-10-26T05:48:45;96368.34;;;13.44;84.55
69411;BME280;56604;48.652;9.194;2022-10-26T05:51:10;96366.22;;;13.46;83.51
69411;BME280;56604;48.652;9.194;2022-10-26T05:53:37;96363.84;;;13.49;83.88
69411;BME280;56604;48.652;9.194;2022-10-26T05:56:07;96367.81;;;13.52;83.90
69411;BME280;56604;48.652;9.194;2022-10-26T05:58:38;96370.16;;;13.48;83.40
69411;BME280;56604;48.652;9.194;2022-10-26T06:01:21;96374.13;;;13.51;84.30
69411;BME280;56604;48.652;9.194;2022-10-26T06:04:07;96388.13;;;13.52;84.23
69411;BME280;56604;48.652;9.194;2022-10-26T06:06:43;96391.56;;;13.62;85.11
69411;BME280;56604;48.652;9.194;2022-10-26T06:09:13;96402.69;;;13.64;84.49
69411;BME280;56604;48.652;9.194;2022-10-26T06:11:39;96400.81;;;13.90;84.89
69411;BME280;56604;48.652;9.194;2022-10-26T06:14:05;96408.22;;;13.73;83.86
69411;BME280;56604;48.652;9.194;2022-10-26T06:16:46;96411.94;;;13.67;83.68
69411;BME280;56604;48.652;9.194;2022-10-26T06:24:40;96425.91;;;13.42;85.44
69411;BME280;56604;48.652;9.194;2022-10-26T06:30:05;96433.03;;;13.41;85.73
69411;BME280;56604;48.652;9.194;2022-10-26T06:32:42;96446.75;;;13.33;86.38
69411;BME280;56604;48.652;9.194;2022-10-26T06:35:18;96438.53;;;13.35;86.14
69411;BME280;56604;48.652;9.194;2022-10-26T06:37:47;96441.75;;;13.42;85.99
69411;BME280;56604;48.652;9.194;2022-10-26T06:40:14;96445.97;;;13.43;86.16
69411;BME280;56604;48.652;9.194;2022-10-26T06:42:40;96444.66;;;13.45;86.22
69411;BME280;56604;48.652;9.194;2022-10-26T06:45:11;96451.53;;;13.46;85.87
69411;BME280;56604;48.652;9.194;2022-10-26T06:47:53;96461.03;;;13.47;85.84
69411;BME280;56604;48.652;9.194;2022-10-26T06:50:35;96455.22;;;13.45;85.98
69411;BME280;56604;48.652;9.194;2022-10-26T06:55:39;96459.19;;;13.53;86.09
69411;BME280;56604;48.652;9.194;2022-10-26T06:58:10;96458.91;;;13.55;85.25
69411;BME280;56604;48.652;9.194;2022-10-26T07:00:38;96464.50;;;13.68;84.97
69411;BME280;56604;48.652;9.194;2022-10-26T07:03:04;96468.44;;;13.66;84.87
69411;BME280;56604;48.652;9.194;2022-10-26T07:05:29;96472.69;;;13.72;84.68
69411;BME280;56604;48.652;9.194;2022-10-26T07:07:54;96474.81;;;13.75;84.65
69411;BME280;56604;48.652;9.194;2022-10-26T07:10:19;96477.97;;;13.67;84.99
69411;BME280;56604;48.652;9.194;2022-10-26T07:12:45;96481.69;;;13.76;84.61
69411;BME280;56604;48.652;9.194;2022-10-26T07:15:10;96484.59;;;13.69;84.72
69411;BME280;56604;48.652;9.194;2022-10-26T07:17:47;96492.53;;;13.75;84.70
69411;BME280;56604;48.652;9.194;2022-10-26T07:20:17;96498.09;;;13.83;84.60
69411;BME280;56604;48.652;9.194;2022-10-26T07:22:43;96498.59;;;13.80;84.58
69411;BME280;56604;48.652;9.194;2022-10-26T07:25:10;96503.38;;;13.83;84.91
69411;BME280;56604;48.652;9.194;2022-10-26T07:27:36;96512.34;;;13.82;84.85
69411;BME280;56604;48.652;9.194;2022-10-26T07:30:02;96513.13;;;13.83;85.05
69411;BME280;56604;48.652;9.194;2022-10-26T07:32:27;96514.47;;;13.90;84.41
69411;BME280;56604;48.652;9.194;2022-10-26T07:34:53;96514.72;;;13.84;85.44
69411;BME280;56604;48.652;9.194;2022-10-26T07:37:19;96520.28;;;13.92;84.77
69411;BME280;56604;48.652;9.194;2022-10-26T07:39:44;96524.50;;;13.99;84.71
69411;BME280;56604;48.652;9.194;2022-10-26T07:42:09;96521.63;;;14.10;84.44
69411;BME280;56604;48.652;9.194;2022-10-26T07:44:34;96533.50;;;14.08;84.38
69411;BME280;56604;48.652;9.194;2022-10-26T07:47:00;96535.38;;;14.12;84.67
69411;BME280;56604;48.652;9.194;2022-10-26T07:49:25;96536.16;;;14.13;83.83
69411;BME280;56604;48.652;9.194;2022-10-26T07:51:50;96530.31;;;14.31;83.79
69411;BME280;56604;48.652;9.194;2022-10-26T07:54:16;96532.97;;;14.36;83.36
69411;BME280;56604;48.652;9.194;2022-10-26T07:56:41;96527.94;;;14.45;82.88
69411;BME280;56604;48.652;9.194;2022-10-26T07:59:07;96533.78;;;14.52;82.71
69411;BME280;56604;48.652;9.194;2022-10-26T08:01:32;96536.69;;;14.56;82.66
69411;BME280;56604;48.652;9.194;2022-10-26T08:03:57;96520.28;;;14.74;81.91
69411;BME280;56604;48.652;9.194;2022-10-26T08:06:23;96523.19;;;14.73;81.37
69411;BME280;56604;48.652;9.194;2022-10-26T08:08:49;96526.59;;;14.83;81.17
69411;BME280;56604;48.652;9.194;2022-10-26T08:11:15;96525.78;;;14.88;81.24
69411;BME280;56604;48.652;9.194;2022-10-26T08:13:40;96535.03;;;14.96;80.74
69411;BME280;56604;48.652;9.194;2022-10-26T08:16:06;96538.19;;;15.03;80.81
69411;BME280;56604;48.652;9.194;2022-10-26T08:18:31;96534.16;;;15.21;80.25
69411;BME280;56604;48.652;9.194;2022-10-26T08:21:09;96527.78;;;15.22;79.79
69411;BME280;56604;48.652;9.194;2022-10-26T08:23:34;96528.31;;;15.19;79.82
69411;BME280;56604;48.652;9.194;2022-10-26T08:26:00;96525.97;;;15.17;80.06
69411;BME280;56604;48.652;9.194;2022-10-26T08:28:27;96532.28;;;15.26;79.34
69411;BME280;56604;48.652;9.194;2022-10-26T08:30:53;96526.91;;;15.42;79.58
69411;BME280;56604;48.652;9.194;2022-10-26T08:33:18;96532.16;;;15.52;78.58
69411;BME280;56604;48.652;9.194;2022-10-26T08:35:43;96538.00;;;15.49;78.28
69411;BME280;56604;48.652;9.194;2022-10-26T08:38:09;96545.94;;;15.54;78.49
69411;BME280;56604;48.652;9.194;2022-10-26T08:40:40;96553.84;;;15.59;78.19
69411;BME280;56604;48.652;9.194;2022-10-26T08:43:15;96552.00;;;15.60;78.87
69411;BME280;56604;48.652;9.194;2022-10-26T08:48:37;96564.94;;;15.66;78.35
69411;BME280;56604;48.652;9.194;2022-10-26T08:51:12;96571.03;;;15.72;78.28
69411;BME280;56604;48.652;9.194;2022-10-26T08:56:39;96573.47;;;15.68;78.67
69411;BME280;56604;48.652;9.194;2022-10-26T08:59:18;96554.31;;;15.77;78.30
69411;BME280;56604;48.652;9.194;2022-10-26T09:01:51;96564.63;;;15.83;78.47
69411;BME280;56604;48.652;9.194;2022-10-26T09:04:16;96564.38;;;15.80;77.89
69411;BME280;56604;48.652;9.194;2022-10-26T09:09:20;96576.09;;;16.47;76.80
69411;BME280;56604;48.652;9.194;2022-10-26T09:11:52;96580.41;;;16.72;75.32
69411;BME280;56604;48.652;9.194;2022-10-26T09:20:02;96587.34;;;17.50;73.17
69411;BME280;56604;48.652;9.194;2022-10-26T09:22:40;96587.03;;;18.14;72.21
69411;BME280;56604;48.652;9.194;2022-10-26T09:25:23;96584.88;;;18.68;67.68
69411;BME280;56604;48.652;9.194;2022-10-26T09:27:59;96590.75;;;18.83;67.98
69411;BME280;56604;48.652;9.194;2022-10-26T09:30:25;96593.84;;;18.39;69.16
69411;BME280;56604;48.652;9.194;2022-10-26T09:32:58;96603.06;;;18.09;69.47
69411;BME280;56604;48.652;9.194;2022-10-26T09:35:50;96596.38;;;18.11;69.35
69411;BME280;56604;48.652;9.194;2022-10-26T09:38:28;96603.09;;;18.79;68.86
69411;BME280;56604;48.652;9.194;2022-10-26T09:43:52;96604.63;;;19.41;66.73
69411;BME280;56604;48.652;9.194;2022-10-26T09:46:39;96609.66;;;19.56;65.13
69411;BME280;56604;48.652;9.194;2022-10-26T09:49:09;96607.88;;;19.51;63.13
69411;BME280;56604;48.652;9.194;2022-10-26T09:51:37;96610.88;;;19.64;64.40
69411;BME280;56604;48.652;9.194;2022-10-26T09:54:08;96608.84;;;19.97;63.87
69411;BME280;56604;48.652;9.194;2022-10-26T09:56:37;96601.88;;;20.24;62.26
69411;BME280;56604;48.652;9.194;2022-10-26T09:59:04;96608.69;;;20.52;61.61
69411;BME280;56604;48.652;9.194;2022-10-26T10:01:34;96617.19;;;20.54;60.67
69411;BME280;56604;48.652;9.194;2022-10-26T10:06:43;96624.25;;;20.00;62.38
69411;BME280;56604;48.652;9.194;2022-10-26T10:09:14;96625.41;;;20.21;62.20
69411;BME280;56604;48.652;9.194;2022-10-26T10:11:44;96630.78;;;20.44;61.92
69411;BME280;56604;48.652;9.194;2022-10-26T10:14:16;96626.66;;;20.60;61.96
69411;BME280;56604;48.652;9.194;2022-10-26T10:16:50;96634.13;;;20.13;61.79
69411;BME280;56604;48.652;9.194;2022-10-26T10:19:30;96638.03;;;20.30;62.57
69411;BME280;56604;48.652;9.194;2022-10-26T10:22:01;96636.06;;;20.35;62.17
69411;BME280;56604;48.652;9.194;2022-10-26T10:24:35;96641.34;;;20.94;61.02
69411;BME280;56604;48.652;9.194;2022-10-26T10:29:47;96633.88;;;21.76;59.00
69411;BME280;56604;48.652;9.194;2022-10-26T10:32:18;96632.47;;;21.87;59.11
69411;BME280;56604;48.652;9.194;2022-10-26T10:34:48;96643.03;;;21.92;57.68
69411;BME280;56604;48.652;9.194;2022-10-26T10:37:35;96647.41;;;21.79;57.89
69411;BME280;56604;48.652;9.194;2022-10-26T10:40:06;96636.38;;;21.72;58.64
69411;BME280;56604;48.652;9.194;2022-10-26T10:42:35;96645.69;;;21.75;57.25
69411;BME280;56604;48.652;9.194;2022-10-26T10:45:02;96644.81;;;21.26;58.23
69411;BME280;56604;48.652;9.194;2022-10-26T10:47:30;96657.41;;;21.56;58.41
69411;BME280;56604;48.652;9.194;2022-10-26T10:50:00;96648.97;;;21.32;57.74
69411;BME280;56604;48.652;9.194;2022-10-26T10:52:29;96659.69;;;21.09;59.21
69411;BME280;56604;48.652;9.194;2022-10-26T10:55:08;96666.56;;;21.02;58.80
69411;BME280;56604;48.652;9.194;2022-10-26T10:57:51;96667.97;;;20.77;59.23
69411;BME280;56604;48.652;9.194;2022-10-26T11:00:20;96663.41;;;20.77;60.48
69411;BME280;56604;48.652;9.194;2022-10-26T11:08:09;96669.78;;;20.67;59.85
69411;BME280;56604;48.652;9.194;2022-10-26T11:10:45;96672.84;;;20.38;60.91
69411;BME280;56604;48.652;9.194;2022-10-26T11:13:19;96664.00;;;20.15;61.56
69411;BME280;56604;48.652;9.194;2022-10-26T11:15:49;96674.09;;;19.91;62.49
69411;BME280;56604;48.652;9.194;2022-10-26T11:18:44;96670.47;;;19.87;62.83
69411;BME280;56604;48.652;9.194;2022-10-26T11:21:26;96670.91;;;20.03;61.87
69411;BME280;56604;48.652;9.194;2022-10-26T11:29:41;96680.50;;;19.62;63.32
69411;BME280;56604;48.652;9.194;2022-10-26T11:35:12;96680.09;;;20.10;63.11
69411;BME280;56604;48.652;9.194;2022-10-26T11:37:47;96680.97;;;20.19;62.48
69411;BME280;56604;48.652;9.194;2022-10-26T11:40:37;96667.88;;;20.32;61.61
69411;BME280;56604;48.652;9.194;2022-10-26T11:45:44;96670.63;;;20.40;61.71
69411;BME280;56604;48.652;9.194;2022-10-26T11:48:16;96674.72;;;20.38;61.57
69411;BME280;56604;48.652;9.194;2022-10-26T11:50:49;96677.25;;;20.43;61.73
69411;BME280;56604;48.652;9.194;2022-10-26T11:53:25;96686.16;;;20.75;61.31
69411;BME280;56604;48.652;9.194;2022-10-26T11:55:53;96675.09;;;20.81;61.32
69411;BME280;56604;48.652;9.194;2022-10-26T11:58:25;96679.38;;;20.91;60.70
69411;BME280;56604;48.652;9.194;2022-10-26T12:01:03;96680.16;;;21.14;61.24
69411;BME280;56604;48.652;9.194;2022-10-26T12:03:35;96673.88;;;21.19;60.64
69411;BME280;56604;48.652;9.194;2022-10-26T12:06:02;96682.09;;;21.22;59.41
69411;BME280;56604;48.652;9.194;2022-10-26T12:08:36;96684.72;;;21.14;59.35
69411;BME280;56604;48.652;9.194;2022-10-26T12:19:49;96694.44;;;21.32;58.87
69411;BME280;56604;48.652;9.194;2022-10-26T12:22:17;96693.75;;;21.49;58.86
69411;BME280;56604;48.652;9.194;2022-10-26T12:24:44;96696.28;;;21.54;58.85
69411;BME280;56604;48.652;9.194;2022-10-26T12:35:39;96701.25;;;21.16;59.15
69411;BME280;56604;48.652;9.194;2022-10-26T12:40:46;96707.81;;;21.09;58.97
69411;BME280;56604;48.652;9.194;2022-10-26T12:46:36;96703.56;;;20.86;59.41
69411;BME280;56604;48.652;9.194;2022-10-26T12:48:58;96703.16;;;20.93;58.87
69411;BME280;56604;48.652;9.194;2022-10-26T12:56:57;96715.34;;;21.07;59.60
69411;BME280;56604;48.652;9.194;2022-10-26T13:02:31;96713.28;;;21.27;58.88
69411;BME280;56604;48.652;9.194;2022-10-26T13:07:40;96721.13;;;21.23;58.28
69411;BME280;56604;48.652;9.194;2022-10-26T13:13:01;96721.78;;;21.29;58.01
69411;BME280;56604;48.652;9.194;2022-10-26T13:15:35;96714.97;;;21.45;57.65
69411;BME280;56604;48.652;9.194;2022-10-26T13:18:13;96715.09;;;21.40;57.79
69411;BME280;56604;48.652;9.194;2022-10-26T13:21:04;96716.44;;;21.29;57.68
69411;BME280;56604;48.652;9.194;2022-10-26T13:23:34;96718.56;;;21.18;58.03
69411;BME280;56604;48.652;9.194;2022-10-26T13:26:03;96726.16;;;20.80;57.80
69411;BME280;56604;48.652;9.194;2022-10-26T13:31:04;96719.69;;;20.58;58.85
69411;BME280;56604;48.652;9.194;2022-10-26T13:33:37;96730.81;;;20.38;59.07
69411;BME280;56604;48.652;9.194;2022-10-26T13:36:41;96729.44;;;20.27;59.63
69411;BME280;56604;48.652;9.194;2022-10-26T13:39:16;96735.38;;;20.10;59.93
69411;BME280;56604;48.652;9.194;2022-10-26T13:41:45;96730.84;;;20.10;60.18
69411;BME280;56604;48.652;9.194;2022-10-26T13:47:03;96736.06;;;20.15;61.07
69411;BME280;56604;48.652;9.194;2022-10-26T13:49:38;96731.03;;;20.00;60.86
69411;BME280;56604;48.652;9.194;2022-10-26T13:52:12;96737.03;;;19.92;61.02
69411;BME280;56604;48.652;9.194;2022-10-26T13:54:44;96735.97;;;19.93;60.38
69411;BME280;56604;48.652;9.194;2022-10-26T13:57:41;96729.03;;;19.92;60.53
69411;BME280;56604;48.652;9.194;2022-10-26T14:00:08;96738.94;;;19.91;60.77
69411;BME280;56604;48.652;9.194;2022-10-26T14:02:41;96745.06;;;19.92;60.51
69411;BME280;56604;48.652;9.194;2022-10-26T14:05:09;96749.00;;;19.94;61.22
69411;BME280;56604;48.652;9.194;2022-10-26T14:10:38;96758.59;;;19.82;61.54
69411;BME280;56604;48.652;9.194;2022-10-26T14:13:12;96755.16;;;19.81;61.84
69411;BME280;56604;48.652;9.194;2022-10-26T14:15:42;96759.13;;;19.84;61.74
69411;BME280;56604;48.652;9.194;2022-10-26T14:18:15;96764.44;;;19.84;61.49
69411;BME280;56604;48.652;9.194;2022-10-26T14:20:46;96766.09;;;19.80;62.33
69411;BME280;56604;48.652;9.194;2022-10-26T14:23:34;96768.38;;;19.72;62.51
69411;BME280;56604;48.652;9.194;2022-10-26T14:25:59;96765.03;;;19.67;62.04
69411;BME280;56604;48.652;9.194;2022-10-26T14:28:27;96770.56;;;19.70;62.03
69411;BME280;56604;48.652;9.194;2022-10-26T14:31:10;96770.75;;;19.74;62.53
69411;BME280;56604;48.652;9.194;2022-10-26T14:33:35;96771.25;;;19.76;63.20
69411;BME280;56604;48.652;9.194;2022-10-26T14:36:00;96767.41;;;19.82;62.09
69411;BME280;56604;48.652;9.194;2022-10-26T14:38:27;96773.72;;;19.72;60.16
69411;BME280;56604;48.652;9.194;2022-10-26T14:40:57;96779.66;;;19.83;59.27
69411;BME280;56604;48.652;9.194;2022-10-26T14:43:23;96780.44;;;19.70;59.56
69411;BME280;56604;48.652;9.194;2022-10-26T14:45:51;96776.69;;;19.85;58.78
69411;BME280;56604;48.652;9.194;2022-10-26T14:48:31;96783.97;;;19.65;59.55
69411;BME280;56604;48.652;9.194;2022-10-26T14:53:30;96782.63;;;19.49;60.39
69411;BME280;56604;48.652;9.194;2022-10-26T14:55:57;96788.53;;;19.46;60.22
69411;BME280;56604;48.652;9.194;2022-10-26T14:58:30;96784.38;;;19.40;60.93
69411;BME280;56604;48.652;9.194;2022-10-26T15:03:50;96790.44;;;19.26;60.70
69411;BME280;56604;48.652;9.194;2022-10-26T15:08:58;96797.25;;;19.19;61.39
69411;BME280;56604;48.652;9.194;2022-10-26T15:11:27;96798.56;;;19.02;62.08
69411;BME280;56604;48.652;9.194;2022-10-26T15:13:54;96800.50;;;18.97;62.38
69411;BME280;56604;48.652;9.194;2022-10-26T15:18:50;96811.28;;;18.86;62.63
69411;BME280;56604;48.652;9.194;2022-10-26T15:21:27;96814.78;;;18.87;62.48
69411;BME280;56604;48.652;9.194;2022-10-26T15:23:55;96814.47;;;18.88;61.74
69411;BME280;56604;48.652;9.194;2022-10-26T15:26:22;96814.38;;;18.75;62.49